createdAt,value
2018-08-07T06:42:08.851Z,6.80
2018-08-07T06:43:09.667Z,6.90
2018-08-07T06:44:46.966Z,7.40
2018-08-07T06:45:48.076Z,6.80
2018-08-07T06:46:59.779Z,6.20
2018-08-07T06:48:05.556Z,6.20
2018-08-07T06:49:07.859Z,6.10
2018-08-07T06:50:08.675Z,6.30
2018-08-07T06:51:09.455Z,6.30
2018-08-07T06:52:10.182Z,6.40
2018-08-07T06:53:10.928Z,6.20
2018-08-07T06:54:11.663Z,6.10
2018-08-07T06:55:35.777Z,6.20
2018-08-07T06:56:37.909Z,6.20
2018-08-07T06:57:38.870Z,6.10
2018-08-07T06:58:39.573Z,6.30
2018-08-07T06:59:40.362Z,6.50
2018-08-07T07:00:41.349Z,6.40
2018-08-07T07:01:42.105Z,6.30
2018-08-07T07:02:42.891Z,6.70
2018-08-07T07:04:19.997Z,6.20
2018-08-07T07:05:20.990Z,6.20
2018-08-07T07:06:22.170Z,6.40
2018-08-07T07:07:22.929Z,6.50
2018-08-07T07:08:23.713Z,6.70
2018-08-07T07:09:24.587Z,6.40
2018-08-07T07:10:25.802Z,7.10
2018-08-07T07:11:30.901Z,6.30
2018-08-07T07:12:40.198Z,6.50
2018-08-07T07:13:49.795Z,6.60
2018-08-07T07:15:10.799Z,6.80
2018-08-07T07:16:11.487Z,6.50
2018-08-07T07:18:52.044Z,6.90
2018-08-07T07:19:52.892Z,6.60
2018-08-07T07:20:53.698Z,6.80
2018-08-07T07:21:58.014Z,7.00
2018-08-07T07:22:58.738Z,7.00
2018-08-07T07:24:08.039Z,6.70
2018-08-07T07:25:08.786Z,6.70
2018-08-07T07:26:09.516Z,6.80
2018-08-07T07:27:10.212Z,7.00
2018-08-07T07:28:10.921Z,6.90
2018-08-07T07:29:17.759Z,7.30
2018-08-07T07:30:18.641Z,7.00
2018-08-07T07:31:19.396Z,7.00
2018-08-07T07:32:20.175Z,6.90
2018-08-07T07:33:27.830Z,7.10
2018-08-07T07:34:40.526Z,6.70
2018-08-07T07:35:41.308Z,7.20
2018-08-07T07:36:42.077Z,7.20
2018-08-07T07:39:19.498Z,7.20
2018-08-07T07:40:20.467Z,7.20
2018-08-07T07:41:23.073Z,7.40
2018-08-07T07:42:24.484Z,7.30
2018-08-07T07:43:25.157Z,6.90
2018-08-07T07:44:48.721Z,6.30
2018-08-07T07:45:51.206Z,6.30
2018-08-07T07:46:52.054Z,6.50
2018-08-07T07:47:52.752Z,7.00
2018-08-07T07:49:10.977Z,6.60
2018-08-07T07:50:53.558Z,6.80
2018-08-07T07:51:57.294Z,6.80
2018-08-07T07:52:58.099Z,6.60
2018-08-07T07:54:00.297Z,7.10
2018-08-07T07:55:01.491Z,7.00
2018-08-07T07:56:09.036Z,7.10
2018-08-07T07:57:09.971Z,6.80
2018-08-07T07:58:10.725Z,7.10
2018-08-07T07:59:44.036Z,6.90
2018-08-07T08:02:35.918Z,7.20
2018-08-07T08:04:18.909Z,6.70
2018-08-07T08:05:19.851Z,7.10
2018-08-07T08:06:20.662Z,7.00
2018-08-07T08:07:40.152Z,7.30
2018-08-07T08:09:10.160Z,7.40
2018-08-07T08:10:11.071Z,7.10
2018-08-07T08:11:22.988Z,7.20
2018-08-07T08:12:41.833Z,7.10
2018-08-07T08:13:42.617Z,6.70
2018-08-07T08:14:43.365Z,6.70
2018-08-07T08:15:46.023Z,6.90
2018-08-07T08:16:47.471Z,7.10
2018-08-07T08:17:48.166Z,6.80
2018-08-07T08:19:10.450Z,6.70
2018-08-07T08:20:41.191Z,7.60
2018-08-07T08:21:41.963Z,7.60
2018-08-07T08:23:12.945Z,7.00
2018-08-07T08:26:00.316Z,6.60
2018-08-07T08:27:10.718Z,7.10
2018-08-07T08:29:23.287Z,7.00
2018-08-07T08:30:27.426Z,6.60
2018-08-07T08:31:40.649Z,6.60
2018-08-07T08:32:41.976Z,6.50
2018-08-07T08:33:42.671Z,6.80
2018-08-07T08:34:43.435Z,7.50
2018-08-07T08:36:11.417Z,7.60
2018-08-07T08:37:12.891Z,6.80
2018-08-07T08:38:13.626Z,6.90
2018-08-07T08:39:14.336Z,6.80
2018-08-07T08:40:15.137Z,7.00
2018-08-07T08:41:43.622Z,7.10
2018-08-07T08:42:44.356Z,7.20
2018-08-07T08:43:45.137Z,6.70
2018-08-07T08:45:11.825Z,7.30
2018-08-07T08:46:12.499Z,6.90
2018-08-07T08:47:13.232Z,6.70
2018-08-07T08:48:14.042Z,7.00
2018-08-07T08:49:14.797Z,7.20
2018-08-07T08:50:15.543Z,7.30
2018-08-07T08:51:16.401Z,7.10
2018-08-07T08:52:17.101Z,7.10
2018-08-07T08:53:17.803Z,6.90
2018-08-07T08:54:18.506Z,6.60
2018-08-07T08:55:19.335Z,6.90
2018-08-07T08:56:20.938Z,6.90
2018-08-07T08:57:21.814Z,6.70
2018-08-07T08:58:22.529Z,6.50
2018-08-07T09:00:09.499Z,6.80
2018-08-07T09:01:10.368Z,6.60
2018-08-07T09:02:12.093Z,6.60
2018-08-07T09:04:15.768Z,6.80
2018-08-07T09:05:10.916Z,6.60
2018-08-07T09:06:11.859Z,6.40
2018-08-07T09:07:13.612Z,6.80
2018-08-07T09:08:14.455Z,6.50
2018-08-07T09:09:15.161Z,6.90
2018-08-07T09:10:20.622Z,7.00
2018-08-07T09:11:21.390Z,6.90
2018-08-07T09:12:22.694Z,6.70
2018-08-07T09:13:23.474Z,6.90
2018-08-07T09:14:24.162Z,6.30
2018-08-07T09:15:25.056Z,6.90
2018-08-07T09:16:25.798Z,6.70
2018-08-07T09:17:40.275Z,6.50
2018-08-07T09:19:10.937Z,6.60
2018-08-07T09:20:11.816Z,6.30
2018-08-07T09:21:12.633Z,6.60
2018-08-07T09:22:13.368Z,6.60
2018-08-07T09:23:15.072Z,7.20
2018-08-07T09:24:16.039Z,6.40
2018-08-07T09:25:16.788Z,6.70
2018-08-07T09:26:17.572Z,6.80
2018-08-07T09:27:18.259Z,6.40
2018-08-07T09:28:49.331Z,7.10
2018-08-07T09:29:50.136Z,6.40
2018-08-07T09:32:54.204Z,6.70
2018-08-07T09:33:56.089Z,6.70
2018-08-07T09:34:57.060Z,6.30
2018-08-07T09:36:13.162Z,6.50
2018-08-07T09:39:09.244Z,6.10
2018-08-07T09:40:50.212Z,6.20
2018-08-07T09:42:10.688Z,6.70
2018-08-07T09:43:11.365Z,6.20
2018-08-07T09:44:12.113Z,6.80
2018-08-07T09:45:12.816Z,6.70
2018-08-07T09:46:13.777Z,6.80
2018-08-07T09:47:37.641Z,6.10
2018-08-07T09:48:40.319Z,6.70
2018-08-07T09:49:41.096Z,6.40
2018-08-07T09:50:41.856Z,6.60
2018-08-07T09:51:42.603Z,6.40
2018-08-07T09:52:45.616Z,6.70
2018-08-07T09:53:46.627Z,6.80
2018-08-07T09:54:50.899Z,7.00
2018-08-07T09:55:51.639Z,7.00
2018-08-07T09:56:52.462Z,6.70
2018-08-07T09:59:42.352Z,6.70
2018-08-07T10:01:04.094Z,6.60
2018-08-07T10:02:10.952Z,6.30
2018-08-07T10:05:21.391Z,6.70
2018-08-07T10:05:28.619Z,6.60
2018-08-07T10:06:22.207Z,6.00
2018-08-07T10:07:26.888Z,6.50
2018-08-07T10:08:27.719Z,6.50
2018-08-07T10:09:52.172Z,6.00
2018-08-07T10:10:53.378Z,6.00
2018-08-07T10:11:54.181Z,6.80
2018-08-07T10:12:54.948Z,6.40
2018-08-07T10:13:55.725Z,6.10
2018-08-07T10:14:57.645Z,5.90
2018-08-07T10:15:58.656Z,5.60
2018-08-07T10:16:59.606Z,5.60
2018-08-07T10:18:00.428Z,5.90
2018-08-07T10:19:11.802Z,5.50
2018-08-07T10:20:12.483Z,5.50
2018-08-07T10:21:13.272Z,5.80
2018-08-07T10:22:14.197Z,5.50
2018-08-07T10:23:17.521Z,5.10
2018-08-07T10:24:18.968Z,4.70
2018-08-07T10:25:21.294Z,5.00
2018-08-07T10:26:22.113Z,4.80
2018-08-07T10:27:25.122Z,5.30
2018-08-07T10:28:26.914Z,5.30
2018-08-07T10:29:27.982Z,4.70
2018-08-07T10:30:28.685Z,4.80
2018-08-07T10:31:43.082Z,4.90
2018-08-07T10:32:43.806Z,4.60
2018-08-07T10:33:44.611Z,4.50
2018-08-07T16:22:49.897Z,3.60
2018-08-07T16:23:54.701Z,3.60
